Time;durP1;ratioP1;P1;durP2;ratioP2;P2;SDS_P1;SDS_P2;PMS_P1;PMS_P2;Temp;Humidity;BMP_temperature;BMP_pressure;BME280_temperature;BME280_humidity;BME280_pressure;Samples;Min_cycle;Max_cycle;Signal;HPM_P1;HPM_P2
2023/11/25 06:00:26;;;;;;;8.73;1.42;;;3.10;76.90;;;;;;4894467;23;20117;31
2023/11/25 06:02:28;;;;;;;5.35;1.90;;;3.00;76.80;;;;;;4092659;28;20059;-77
2023/11/25 06:04:30;;;;;;;5.10;1.23;;;3.00;76.70;;;;;;4098618;28;20051;-77
2023/11/25 06:06:32;;;;;;;5.22;1.40;;;3.00;76.90;;;;;;4097308;28;20047;-78
2023/11/25 06:08:34;;;;;;;5.88;1.20;;;3.00;76.50;;;;;;4101564;29;20047;-78
2023/11/25 06:10:36;;;;;;;6.18;1.58;;;2.90;76.50;;;;;;4101608;29;20114;-79
2023/11/25 06:12:37;;;;;;;4.60;1.08;;;2.90;76.50;;;;;;4100363;29;20043;-77
2023/11/25 06:14:39;;;;;;;5.95;1.30;;;3.00;76.90;;;;;;4100158;29;20138;-78
2023/11/25 06:16:42;;;;;;;5.00;1.27;;;3.00;76.50;;;;;;4099181;29;20400;-77
2023/11/25 06:18:44;;;;;;;8.40;1.98;;;2.90;76.50;;;;;;4097275;29;20624;-75
2023/11/25 06:20:47;;;;;;;6.45;1.50;;;2.90;76.70;;;;;;4095316;28;20059;-78
2023/11/25 06:22:49;;;;;;;6.00;1.40;;;2.90;76.60;;;;;;4098821;29;20413;-78
2023/11/25 06:24:51;;;;;;;7.00;1.42;;;2.90;76.70;;;;;;4099272;28;20051;-78
2023/11/25 06:26:53;;;;;;;5.68;1.30;;;2.90;76.70;;;;;;4102623;29;20066;-80
2023/11/25 06:28:55;;;;;;;5.60;1.30;;;2.90;76.70;;;;;;4100028;28;20043;-80
2023/11/25 06:30:57;;;;;;;5.03;1.60;;;2.90;76.70;;;;;;4102472;28;20093;-78
2023/11/25 06:33:01;;;;;;;6.85;1.50;;;2.90;77.60;;;;;;4102426;28;20051;-75
2023/11/25 06:35:04;;;;;;;7.03;1.50;;;3.00;76.80;;;;;;4101749;29;20126;-78
2023/11/25 06:37:06;;;;;;;8.70;1.98;;;3.00;76.80;;;;;;4102516;29;20058;-79
2023/11/25 06:39:11;;;;;;;6.82;2.42;;;3.00;76.90;;;;;;4101699;29;20039;-76
2023/11/25 06:41:11;;;;;;;6.78;2.00;;;3.00;76.70;;;;;;4102096;28;20147;-75
2023/11/25 06:43:15;;;;;;;6.07;1.50;;;3.00;76.80;;;;;;4102047;29;20420;-79
2023/11/25 06:45:16;;;;;;;5.63;1.48;;;3.00;76.70;;;;;;4101672;29;20070;-77
2023/11/25 06:47:17;;;;;;;6.55;1.95;;;3.00;76.60;;;;;;4100299;28;20051;-77
2023/11/25 06:49:21;;;;;;;6.80;1.80;;;3.10;76.80;;;;;;4100505;28;20043;-76
2023/11/25 06:51:23;;;;;;;4.75;1.50;;;3.10;76.60;;;;;;4100622;28;20086;-77
2023/11/25 06:53:25;;;;;;;6.85;1.65;;;3.10;76.30;;;;;;4102297;28;20055;-77
2023/11/25 06:55:27;;;;;;;6.25;1.38;;;3.10;75.80;;;;;;4102243;28;20477;-77
2023/11/25 06:57:29;;;;;;;7.85;1.83;;;3.10;75.80;;;;;;4096505;28;20055;-78
2023/11/25 06:59:30;;;;;;;7.13;1.50;;;3.00;75.70;;;;;;4099165;28;20048;-75
2023/11/25 07:01:32;;;;;;;8.65;2.03;;;3.00;75.80;;;;;;4103664;29;20059;-76
2023/11/25 07:03:35;;;;;;;6.13;1.45;;;3.10;75.80;;;;;;4103541;29;20488;-78
2023/11/25 07:05:39;;;;;;;5.38;1.40;;;3.00;75.90;;;;;;4104563;29;20055;-78
2023/11/25 07:07:41;;;;;;;6.60;1.70;;;3.00;76.20;;;;;;4102639;29;20051;-77
2023/11/25 07:09:42;;;;;;;5.22;1.60;;;3.00;76.40;;;;;;4102048;29;20362;-77
2023/11/25 07:11:44;;;;;;;5.57;1.70;;;3.00;76.30;;;;;;4103175;29;20051;-79
2023/11/25 07:13:46;;;;;;;5.40;1.50;;;3.00;76.70;;;;;;4100674;28;20047;-78
2023/11/25 07:15:53;;;;;;;5.28;1.50;;;2.90;76.60;;;;;;4100103;29;20481;-76
2023/11/25 07:17:55;;;;;;;5.63;1.60;;;2.90;77.00;;;;;;4100530;28;20511;-79
2023/11/25 07:19:57;;;;;;;8.32;1.50;;;3.00;77.30;;;;;;4096818;29;20078;-78
2023/11/25 07:22:00;;;;;;;6.53;1.38;;;2.90;77.50;;;;;;4090548;29;20048;-79
2023/11/25 07:24:03;;;;;;;8.20;1.40;;;2.90;77.60;;;;;;4085857;29;20111;-77
2023/11/25 07:26:06;;;;;;;6.97;1.20;;;2.90;78.00;;;;;;4095858;29;20043;-77
2023/11/25 07:28:09;;;;;;;6.95;1.35;;;3.00;78.00;;;;;;4098132;28;20071;-78
2023/11/25 07:30:12;;;;;;;8.05;1.75;;;2.90;77.90;;;;;;4101069;28;20047;-77
2023/11/25 07:32:14;;;;;;;10.27;1.60;;;2.90;78.20;;;;;;4101762;28;20109;-76
2023/11/25 07:34:15;;;;;;;7.35;2.10;;;2.80;78.40;;;;;;4102075;28;20047;-77
2023/11/25 07:36:17;;;;;;;6.43;1.20;;;2.80;78.60;;;;;;4099925;28;20093;-77
2023/11/25 07:38:20;;;;;;;8.45;1.63;;;2.90;78.40;;;;;;4100588;28;20043;-78
2023/11/25 07:40:22;;;;;;;6.45;1.95;;;2.90;78.50;;;;;;4096158;28;20051;-78
2023/11/25 07:42:24;;;;;;;6.50;1.48;;;2.90;78.50;;;;;;4101737;29;20433;-78
2023/11/25 07:44:30;;;;;;;9.43;1.90;;;2.90;78.70;;;;;;4101396;29;20098;-79
2023/11/25 07:46:32;;;;;;;8.90;1.70;;;2.90;78.70;;;;;;4101597;29;20047;-75
2023/11/25 07:48:33;;;;;;;6.50;1.50;;;3.00;78.60;;;;;;4081981;28;20059;-78
2023/11/25 07:50:37;;;;;;;4.28;1.30;;;3.00;78.50;;;;;;4087581;29;20051;-77
2023/11/25 07:52:39;;;;;;;6.57;1.58;;;3.00;78.60;;;;;;4094023;29;20049;-78
2023/11/25 07:54:42;;;;;;;6.25;1.55;;;3.00;78.80;;;;;;4082918;29;20061;-78
2023/11/25 07:56:45;;;;;;;5.22;1.38;;;3.00;78.20;;;;;;4080621;29;20090;-76
2023/11/25 07:58:48;;;;;;;6.40;1.40;;;3.10;78.10;;;;;;4088759;29;20056;-78
2023/11/25 08:00:50;;;;;;;4.40;1.90;;;3.00;77.70;;;;;;4089935;28;20431;-78
2023/11/25 08:02:55;;;;;;;6.70;1.65;;;3.10;77.60;;;;;;4090399;28;20051;-76
2023/11/25 08:04:57;;;;;;;9.25;1.83;;;3.00;77.80;;;;;;4091051;28;20055;-76
2023/11/25 08:06:59;;;;;;;7.18;1.50;;;3.00;78.10;;;;;;4086532;29;20048;-76
2023/11/25 08:09:00;;;;;;;7.53;1.73;;;3.00;77.80;;;;;;4086259;28;20050;-76
2023/11/25 08:11:03;;;;;;;7.40;1.88;;;3.00;78.30;;;;;;4095086;28;20496;-76
2023/11/25 08:13:05;;;;;;;5.03;1.40;;;3.00;78.70;;;;;;4091752;29;20090;-78
2023/11/25 08:15:09;;;;;;;5.50;1.30;;;3.00;78.10;;;;;;4087465;29;20047;-79
2023/11/25 08:17:11;;;;;;;6.60;1.58;;;3.00;77.90;;;;;;4089344;29;20046;-80
2023/11/25 08:19:14;;;;;;;7.63;1.88;;;3.00;78.20;;;;;;4101110;28;20500;-79
2023/11/25 08:21:16;;;;;;;6.25;1.55;;;3.00;78.00;;;;;;4099789;28;20054;-79
2023/11/25 08:23:19;;;;;;;4.55;1.48;;;3.10;78.10;;;;;;4082237;28;20086;-79
2023/11/25 08:25:21;;;;;;;7.90;1.70;;;3.10;78.40;;;;;;4069282;29;20054;-79
2023/11/25 08:27:25;;;;;;;8.15;1.60;;;3.10;78.50;;;;;;4070212;29;20083;-79
2023/11/25 08:29:27;;;;;;;6.38;1.42;;;3.10;78.20;;;;;;4075717;29;20055;-78
2023/11/25 08:31:29;;;;;;;5.60;1.30;;;3.10;79.10;;;;;;4071162;29;20461;-79
2023/11/25 08:33:30;;;;;;;6.35;1.85;;;3.10;77.90;;;;;;4073554;29;20074;-76
2023/11/25 08:35:32;;;;;;;4.72;1.33;;;3.10;78.00;;;;;;4076427;29;20048;-78
2023/11/25 08:37:33;;;;;;;4.65;1.63;;;3.20;78.00;;;;;;4073163;29;20048;-78
2023/11/25 08:39:36;;;;;;;8.88;1.65;;;3.20;78.00;;;;;;4078997;29;20048;-79
2023/11/25 08:41:38;;;;;;;5.93;1.63;;;3.20;78.20;;;;;;4062587;29;20417;-75
2023/11/25 08:43:43;;;;;;;7.88;1.90;;;3.30;78.10;;;;;;4074805;29;20477;-79
2023/11/25 08:45:47;;;;;;;6.20;1.70;;;3.30;78.10;;;;;;4080141;29;20567;-78
2023/11/25 08:47:49;;;;;;;5.95;1.40;;;3.30;77.30;;;;;;4077008;28;20195;-79
2023/11/25 08:49:50;;;;;;;7.00;1.80;;;3.30;77.60;;;;;;4076518;29;20047;-79
2023/11/25 08:51:52;;;;;;;7.82;1.92;;;3.30;77.60;;;;;;4073531;29;20075;-79
2023/11/25 08:53:54;;;;;;;5.55;1.40;;;3.30;77.20;;;;;;4075262;29;20048;-79
2023/11/25 08:55:59;;;;;;;4.47;1.40;;;3.40;77.10;;;;;;4077514;29;20565;-87
2023/11/25 08:58:02;;;;;;;6.57;1.40;;;3.40;76.70;;;;;;4095651;29;20043;-79
2023/11/25 09:00:14;;;;;;;8.40;1.55;;;3.40;76.50;;;;;;4094943;29;20066;-80
2023/11/25 09:02:21;;;;;;;4.45;1.40;;;3.50;76.50;;;;;;4094719;29;20097;-78
2023/11/25 09:04:25;;;;;;;5.50;1.40;;;3.50;76.90;;;;;;4095557;29;20079;-77
2023/11/25 09:06:30;;;;;;;8.18;1.30;;;3.50;76.50;;;;;;4088260;29;20051;-78
2023/11/25 09:08:32;;;;;;;5.78;1.50;;;3.50;76.20;;;;;;4095248;29;20046;-77
2023/11/25 09:10:34;;;;;;;6.55;1.40;;;3.50;76.50;;;;;;4095715;29;20059;-78
2023/11/25 09:12:36;;;;;;;4.97;1.40;;;3.60;76.70;;;;;;4091774;29;20114;-77
2023/11/25 09:14:39;;;;;;;6.13;1.52;;;3.70;76.30;;;;;;4093268;29;20051;-77
2023/11/25 09:16:43;;;;;;;3.88;1.17;;;3.70;76.00;;;;;;4087880;29;20046;-77
2023/11/25 09:18:45;;;;;;;5.35;1.40;;;3.70;75.70;;;;;;4094952;29;20043;-77
2023/11/25 09:20:47;;;;;;;6.53;1.30;;;3.70;76.00;;;;;;4091399;29;20047;-80
2023/11/25 09:22:49;;;;;;;6.95;1.13;;;3.80;76.30;;;;;;4091499;29;20062;-80
2023/11/25 09:24:50;;;;;;;6.97;1.60;;;3.70;76.10;;;;;;4091246;29;20102;-83
2023/11/25 09:26:54;;;;;;;4.57;1.23;;;3.80;75.60;;;;;;4090957;29;20111;-85
2023/11/25 09:28:55;;;;;;;6.10;1.42;;;3.80;75.80;;;;;;4082479;29;20060;-85
2023/11/25 09:30:57;;;;;;;7.13;1.42;;;3.80;75.60;;;;;;4052125;29;20048;-83
2023/11/25 09:33:00;;;;;;;5.60;1.23;;;3.80;76.00;;;;;;4070438;29;20104;-84
2023/11/25 09:35:03;;;;;;;6.50;1.30;;;3.80;76.80;;;;;;4077418;29;20063;-85
2023/11/25 09:37:07;;;;;;;7.35;1.73;;;3.80;76.50;;;;;;4072805;29;20131;-86
2023/11/25 09:39:09;;;;;;;7.22;1.30;;;3.80;76.20;;;;;;4089372;29;20090;-85
2023/11/25 09:41:10;;;;;;;7.90;1.77;;;3.90;76.50;;;;;;4079466;29;20052;-82
2023/11/25 09:43:13;;;;;;;6.32;1.45;;;3.90;76.20;;;;;;4084214;29;20055;-82
2023/11/25 09:45:15;;;;;;;6.40;1.50;;;3.90;76.20;;;;;;4078387;29;20051;-82
2023/11/25 09:47:17;;;;;;;6.53;1.50;;;4.00;76.30;;;;;;4082037;29;20056;-81
2023/11/25 09:49:21;;;;;;;5.75;1.35;;;4.00;76.30;;;;;;4083177;29;20052;-82
2023/11/25 09:51:25;;;;;;;7.38;1.65;;;4.10;76.50;;;;;;4065831;29;20086;-83
2023/11/25 09:53:28;;;;;;;5.10;1.63;;;4.10;76.40;;;;;;4080188;29;20484;-81
2023/11/25 09:55:31;;;;;;;8.50;1.50;;;4.20;76.50;;;;;;4086038;29;20441;-79
2023/11/25 09:57:33;;;;;;;4.88;1.30;;;4.20;76.50;;;;;;4085685;29;20051;-80
2023/11/25 09:59:35;;;;;;;6.68;1.50;;;4.20;76.50;;;;;;4099861;28;20114;-79
2023/11/25 10:01:37;;;;;;;9.75;1.80;;;4.20;76.50;;;;;;4073441;29;20466;-78
2023/11/25 10:03:42;;;;;;;10.15;1.60;;;4.20;76.70;;;;;;4073211;29;20067;-81
2023/11/25 10:05:46;;;;;;;6.67;1.43;;;4.20;75.60;;;;;;4078169;29;21101;-81
2023/11/25 10:07:48;;;;;;;7.47;1.88;;;4.20;75.60;;;;;;4079559;29;20374;-82
2023/11/25 10:09:50;;;;;;;7.13;1.40;;;4.20;75.30;;;;;;4081297;29;20056;-84
2023/11/25 10:11:56;;;;;;;10.52;1.90;;;4.20;75.00;;;;;;4077054;29;20062;-82
2023/11/25 10:13:58;;;;;;;10.60;1.67;;;4.30;75.50;;;;;;4075624;29;20051;-85
2023/11/25 10:15:59;;;;;;;6.43;1.70;;;4.30;75.20;;;;;;4074040;29;20052;-82
2023/11/25 10:18:01;;;;;;;6.18;1.40;;;4.40;75.60;;;;;;4076621;29;20464;-79
2023/11/25 10:20:09;;;;;;;7.47;1.88;;;4.40;75.30;;;;;;4089247;29;20126;-84
2023/11/25 10:22:12;;;;;;;8.30;1.85;;;4.40;75.70;;;;;;4088426;29;20051;-82
2023/11/25 10:24:14;;;;;;;9.23;2.10;;;4.40;74.90;;;;;;4088123;29;20114;-85
2023/11/25 10:26:18;;;;;;;7.25;1.60;;;4.40;74.60;;;;;;4087479;29;20059;-83
2023/11/25 10:28:20;;;;;;;9.68;2.15;;;4.50;75.00;;;;;;4081369;29;20058;-81
2023/11/25 10:30:23;;;;;;;11.20;2.00;;;4.60;74.70;;;;;;4084163;29;20055;-82
2023/11/25 10:32:28;;;;;;;11.32;2.30;;;4.50;74.70;;;;;;4086466;29;20099;-81
2023/11/25 10:34:30;;;;;;;13.68;2.22;;;4.50;74.50;;;;;;4086907;29;20048;-82
2023/11/25 10:36:32;;;;;;;9.75;2.10;;;4.50;74.40;;;;;;4092006;29;20114;-83
2023/11/25 10:38:40;;;;;;;10.75;2.25;;;4.50;74.20;;;;;;4102190;29;20059;-81
2023/11/25 10:40:41;;;;;;;7.90;2.08;;;4.50;74.40;;;;;;4088408;29;20581;-80
2023/11/25 10:42:45;;;;;;;9.52;2.17;;;4.50;74.70;;;;;;4086939;29;20052;-81
2023/11/25 10:44:48;;;;;;;14.07;2.40;;;4.60;74.40;;;;;;4086609;29;20055;-83
2023/11/25 10:46:55;;;;;;;7.70;1.90;;;4.60;74.20;;;;;;4087108;29;20059;-86
2023/11/25 10:48:59;;;;;;;10.00;2.05;;;4.70;74.70;;;;;;4070398;29;20394;-82
2023/11/25 10:51:01;;;;;;;8.68;2.47;;;4.70;74.30;;;;;;4087602;29;20106;-84
2023/11/25 10:53:06;;;;;;;10.70;2.08;;;4.80;74.30;;;;;;4073859;29;20059;-85
2023/11/25 10:55:10;;;;;;;10.80;2.10;;;4.80;74.00;;;;;;4073482;29;20426;-85
2023/11/25 10:57:13;;;;;;;8.98;2.03;;;4.80;74.30;;;;;;4072475;29;20056;-77
2023/11/25 10:59:19;;;;;;;7.68;1.85;;;4.90;74.10;;;;;;4071697;29;20070;-77
2023/11/25 11:01:23;;;;;;;11.27;1.90;;;4.90;74.00;;;;;;4099667;29;20485;-76
2023/11/25 11:03:50;;;;;;;13.45;2.03;;;5.00;74.30;;;;;;4094325;29;20453;-77
2023/11/25 11:05:56;;;;;;;9.10;1.95;;;5.00;73.70;;;;;;4097826;29;20093;-77
2023/11/25 11:08:05;;;;;;;13.70;2.15;;;4.90;73.00;;;;;;4097839;29;20054;-78
2023/11/25 11:10:12;;;;;;;14.27;2.15;;;4.80;73.10;;;;;;4090364;29;20111;-77
2023/11/25 11:12:23;;;;;;;9.93;2.13;;;4.80;73.50;;;;;;4086045;29;20134;-79
2023/11/25 11:14:27;;;;;;;12.30;2.05;;;4.80;73.20;;;;;;4086253;29;20055;-77
2023/11/25 11:16:44;;;;;;;8.70;2.10;;;4.80;73.20;;;;;;4086211;29;20043;-78
2023/11/25 11:18:46;;;;;;;8.95;1.80;;;4.90;73.20;;;;;;4086229;29;20075;-76
2023/11/25 11:20:51;;;;;;;12.43;2.53;;;5.00;73.00;;;;;;4086151;29;20051;-77
2023/11/25 11:22:53;;;;;;;10.43;2.35;;;5.00;72.00;;;;;;4086136;29;20075;-77
2023/11/25 11:25:14;;;;;;;11.15;2.65;;;5.00;72.00;;;;;;4085894;29;20047;-77
2023/11/25 11:27:27;;;;;;;8.05;1.90;;;5.00;72.00;;;;;;4085990;29;20130;-77
2023/11/25 11:29:37;;;;;;;8.65;2.05;;;5.10;71.70;;;;;;4086222;29;20052;-80
2023/11/25 11:31:59;;;;;;;8.82;2.20;;;5.10;71.40;;;;;;4087002;29;20074;-78
2023/11/25 11:34:02;;;;;;;8.75;1.90;;;5.10;71.50;;;;;;4086846;29;20051;-78
2023/11/25 11:36:06;;;;;;;9.15;2.20;;;5.10;71.00;;;;;;4087900;29;20472;-78
2023/11/25 11:38:24;;;;;;;10.32;1.85;;;5.00;71.70;;;;;;4085813;29;20434;-76
2023/11/25 11:40:27;;;;;;;10.50;1.73;;;5.00;71.40;;;;;;4085588;29;20059;-80
2023/11/25 11:42:32;;;;;;;10.13;1.55;;;4.90;71.70;;;;;;4085721;29;20055;-77
2023/11/25 11:44:35;;;;;;;10.07;1.75;;;4.80;70.60;;;;;;4085577;29;20059;-80
2023/11/25 11:46:38;;;;;;;9.88;2.05;;;4.80;71.00;;;;;;4085633;29;20512;-77
2023/11/25 11:48:40;;;;;;;9.07;1.88;;;4.90;70.10;;;;;;4085438;29;20131;-77
2023/11/25 11:50:44;;;;;;;9.00;2.75;;;4.90;70.20;;;;;;4085526;29;20048;-77
2023/11/25 11:52:48;;;;;;;12.98;1.98;;;4.90;70.60;;;;;;4085616;29;20099;-77
2023/11/25 11:54:49;;;;;;;9.65;2.00;;;4.80;70.20;;;;;;4085539;29;20055;-78
2023/11/25 11:57:13;;;;;;;8.57;1.83;;;4.90;70.10;;;;;;4085441;29;20054;-80
2023/11/25 11:59:15;;;;;;;7.55;2.03;;;4.80;69.30;;;;;;4085387;29;20060;-78
2023/11/25 12:01:17;;;;;;;10.43;2.30;;;4.80;68.80;;;;;;4085458;29;20055;-78
2023/11/25 12:03:19;;;;;;;6.68;1.70;;;4.80;69.60;;;;;;4085450;29;20457;-77
2023/11/25 12:05:21;;;;;;;7.07;1.67;;;4.80;68.60;;;;;;4085431;29;20056;-77
2023/11/25 12:07:22;;;;;;;7.10;2.13;;;4.80;68.40;;;;;;4085510;29;20545;-80
2023/11/25 12:09:24;;;;;;;12.65;4.40;;;4.80;68.80;;;;;;4085183;29;20055;-80
2023/11/25 12:11:26;;;;;;;7.10;1.33;;;4.80;69.40;;;;;;4085268;29;20054;-78
2023/11/25 12:13:31;;;;;;;8.13;1.75;;;4.70;69.60;;;;;;4085253;29;20058;-77
2023/11/25 12:15:34;;;;;;;6.35;1.75;;;4.70;70.00;;;;;;4085329;29;20048;-80
2023/11/25 12:17:35;;;;;;;5.43;1.25;;;4.70;71.00;;;;;;4085469;29;20078;-76
2023/11/25 12:19:37;;;;;;;5.55;1.00;;;4.70;71.20;;;;;;4085255;29;20114;-76
2023/11/25 12:21:39;;;;;;;6.68;1.30;;;4.60;70.50;;;;;;4084732;29;20043;-79
2023/11/25 12:23:41;;;;;;;6.97;1.10;;;4.60;70.80;;;;;;4084667;29;20064;-79
2023/11/25 12:25:44;;;;;;;6.90;1.80;;;4.50;71.60;;;;;;4084950;29;20048;-78
2023/11/25 12:27:52;;;;;;;5.65;1.27;;;4.40;73.50;;;;;;4083018;29;20082;-78
2023/11/25 12:29:55;;;;;;;4.10;1.00;;;4.30;74.80;;;;;;4085258;29;20052;-79
2023/11/25 12:31:58;;;;;;;6.57;1.20;;;4.30;75.60;;;;;;4085050;29;20107;-80
2023/11/25 12:34:02;;;;;;;7.40;1.20;;;4.20;75.80;;;;;;4084985;29;20048;-78
2023/11/25 12:36:05;;;;;;;8.07;1.30;;;4.20;77.10;;;;;;4085077;29;20090;-79
2023/11/25 12:38:07;;;;;;;10.38;1.80;;;4.20;77.10;;;;;;4085029;29;20088;-76
2023/11/25 12:40:18;;;;;;;9.93;1.63;;;4.10;76.60;;;;;;4085050;29;20048;-78
2023/11/25 12:42:23;;;;;;;6.57;1.27;;;4.10;77.60;;;;;;4084844;29;20098;-76
2023/11/25 12:44:25;;;;;;;5.80;1.35;;;4.10;78.50;;;;;;4084977;29;20058;-79
2023/11/25 12:46:27;;;;;;;6.05;1.10;;;4.00;79.20;;;;;;4084981;29;20106;-79
2023/11/25 12:48:32;;;;;;;6.75;1.42;;;4.00;79.30;;;;;;4084924;29;20138;-79
2023/11/25 12:50:35;;;;;;;7.15;1.58;;;4.00;79.40;;;;;;4084832;29;20051;-77
2023/11/25 12:52:37;;;;;;;7.10;1.58;;;4.10;79.30;;;;;;4084707;29;20047;-76
2023/11/25 12:54:46;;;;;;;9.18;1.50;;;4.00;79.90;;;;;;4084971;29;20458;-77
2023/11/25 12:56:51;;;;;;;6.18;1.35;;;4.00;80.30;;;;;;4084859;29;20055;-77
2023/11/25 12:58:53;;;;;;;;;;;3.90;81.00;;;;;;4085112;29;20047;-79
2023/11/25 13:00:57;;;;;;;8.45;1.30;;;3.90;81.40;;;;;;4084560;29;20320;-76
2023/11/25 13:03:00;;;;;;;6.75;1.70;;;3.90;82.50;;;;;;4084849;29;20048;-76
2023/11/25 13:05:01;;;;;;;7.10;1.52;;;4.00;82.40;;;;;;4084765;29;20051;-77
2023/11/25 13:07:03;;;;;;;9.52;2.65;;;4.00;82.30;;;;;;4084837;29;20531;-77
2023/11/25 13:09:06;;;;;;;5.95;1.67;;;4.00;82.30;;;;;;4084626;29;20114;-79
2023/11/25 13:11:09;;;;;;;8.05;1.50;;;4.00;82.40;;;;;;4084667;29;20047;-79
2023/11/25 13:13:10;;;;;;;7.45;1.83;;;4.00;82.70;;;;;;4084574;29;20048;-77
2023/11/25 13:15:12;;;;;;;7.13;1.90;;;3.90;82.40;;;;;;4084375;29;20512;-77
2023/11/25 13:17:14;;;;;;;8.38;1.60;;;4.00;83.10;;;;;;4084662;29;20048;-79
2023/11/25 13:19:18;;;;;;;6.93;1.60;;;4.00;82.80;;;;;;4084665;29;20106;-80
2023/11/25 13:21:20;;;;;;;8.80;1.70;;;4.10;82.30;;;;;;4084339;29;20048;-78
2023/11/25 13:23:22;;;;;;;8.30;1.88;;;4.00;81.80;;;;;;4084696;29;20051;-78
2023/11/25 13:25:25;;;;;;;7.68;1.42;;;4.10;82.10;;;;;;4084392;29;20091;-77
2023/11/25 13:27:27;;;;;;;10.25;2.15;;;4.10;82.10;;;;;;4082794;29;20079;-79
2023/11/25 13:29:29;;;;;;;6.93;1.60;;;4.10;81.90;;;;;;4084357;29;20047;-78
2023/11/25 13:31:29;;;;;;;7.55;2.08;;;4.10;81.50;;;;;;4084427;29;20126;-77
2023/11/25 13:33:31;;;;;;;9.32;1.63;;;4.20;81.30;;;;;;4085361;29;20052;-76
2023/11/25 13:35:37;;;;;;;7.40;1.67;;;4.10;80.50;;;;;;4087785;29;20048;-78
2023/11/25 13:37:39;;;;;;;5.65;1.30;;;4.20;79.90;;;;;;4087741;29;20392;-77
2023/11/25 13:39:41;;;;;;;7.93;1.58;;;4.20;79.90;;;;;;4087522;29;20048;-77
2023/11/25 13:41:44;;;;;;;7.47;1.38;;;4.20;79.60;;;;;;4087416;29;20048;-79
2023/11/25 13:43:46;;;;;;;5.43;1.83;;;4.20;79.80;;;;;;4087389;29;20146;-78
2023/11/25 13:45:48;;;;;;;9.13;1.75;;;4.30;79.80;;;;;;4087570;29;20048;-78
2023/11/25 13:47:49;;;;;;;4.65;1.20;;;4.30;78.90;;;;;;4088817;29;20438;-77
2023/11/25 13:49:52;;;;;;;6.53;1.92;;;4.30;78.90;;;;;;4088197;29;20048;-77
2023/11/25 13:51:56;;;;;;;6.22;1.30;;;4.30;78.30;;;;;;4088064;29;20134;-78
2023/11/25 13:53:58;;;;;;;8.35;1.85;;;4.30;78.60;;;;;;4087689;29;20449;-79
2023/11/25 13:56:00;;;;;;;6.97;1.60;;;4.30;78.20;;;;;;4087123;29;20048;-79
2023/11/25 13:58:02;;;;;;;5.32;1.45;;;4.30;78.50;;;;;;4087354;29;20070;-79
2023/11/25 14:00:06;;;;;;;5.18;1.40;;;4.30;78.80;;;;;;4087713;29;20473;-78
2023/11/25 14:02:08;;;;;;;7.55;1.73;;;4.30;79.00;;;;;;4087433;29;20397;-79
2023/11/25 14:04:09;;;;;;;7.07;1.52;;;4.30;79.30;;;;;;4087764;29;20048;-79
2023/11/25 14:06:12;;;;;;;6.38;1.65;;;4.30;79.50;;;;;;4087539;29;20143;-79
2023/11/25 14:08:18;;;;;;;7.88;1.38;;;4.30;79.50;;;;;;4087148;29;20043;-78
2023/11/25 14:10:20;;;;;;;6.95;1.40;;;4.30;79.80;;;;;;4087308;29;20048;-77
2023/11/25 14:12:22;;;;;;;5.03;1.38;;;4.30;80.10;;;;;;4087154;29;20055;-81
2023/11/25 14:14:25;;;;;;;5.05;1.20;;;4.20;80.40;;;;;;4087270;29;20478;-80
2023/11/25 14:16:27;;;;;;;6.47;1.40;;;4.30;80.80;;;;;;4086961;29;20051;-78
2023/11/25 14:18:28;;;;;;;8.85;1.77;;;4.30;80.50;;;;;;4087240;29;20047;-77
2023/11/25 14:20:30;;;;;;;3.97;1.33;;;4.30;81.00;;;;;;4087055;29;20474;-79
2023/11/25 14:22:31;;;;;;;8.95;1.60;;;4.30;81.10;;;;;;4086765;29;20047;-79
2023/11/25 14:24:34;;;;;;;5.20;1.55;;;4.20;81.00;;;;;;4087009;29;20048;-77
2023/11/25 14:26:36;;;;;;;8.02;1.52;;;4.30;81.10;;;;;;4086888;29;20102;-79
2023/11/25 14:28:38;;;;;;;8.68;1.52;;;4.20;81.30;;;;;;4087082;29;20135;-77
2023/11/25 14:30:40;;;;;;;7.10;1.85;;;4.20;81.50;;;;;;4086793;29;20052;-77
2023/11/25 14:32:41;;;;;;;4.10;1.40;;;4.20;81.80;;;;;;4086792;29;20056;-80
2023/11/25 14:34:43;;;;;;;7.35;1.70;;;4.20;82.10;;;;;;4088076;29;20071;-78
2023/11/25 14:36:46;;;;;;;5.07;1.23;;;4.20;81.90;;;;;;4088460;29;20051;-78
2023/11/25 14:38:47;;;;;;;6.32;1.60;;;4.20;82.10;;;;;;4089769;29;20059;-79
2023/11/25 14:40:51;;;;;;;6.57;1.80;;;4.20;82.20;;;;;;4087991;29;20405;-77
2023/11/25 14:42:51;;;;;;;5.10;1.42;;;4.20;82.50;;;;;;4089081;29;20104;-77
2023/11/25 14:44:55;;;;;;;5.13;1.40;;;4.20;82.30;;;;;;4087319;29;20056;-76
2023/11/25 14:46:57;;;;;;;6.72;1.55;;;4.20;82.70;;;;;;4088302;29;20386;-77
2023/11/25 14:49:00;;;;;;;4.38;1.33;;;4.10;83.20;;;;;;4086753;29;20051;-79
2023/11/25 14:51:01;;;;;;;5.47;2.50;;;4.10;83.40;;;;;;4086712;29;20100;-78
2023/11/25 14:53:03;;;;;;;7.63;2.63;;;4.10;84.00;;;;;;4086713;29;20409;-75
2023/11/25 14:55:08;;;;;;;5.75;1.70;;;4.10;84.30;;;;;;4086661;29;20383;-77
2023/11/25 14:57:10;;;;;;;6.88;1.58;;;4.10;84.40;;;;;;4086686;29;20051;-81
2023/11/25 14:59:12;;;;;;;6.15;1.92;;;4.10;85.30;;;;;;4086598;29;20111;-79
2023/11/25 15:01:16;;;;;;;6.38;2.03;;;4.00;84.90;;;;;;4086313;29;20135;-77
2023/11/25 15:03:18;;;;;;;5.93;2.45;;;4.00;85.40;;;;;;4086586;29;20051;-79
2023/11/25 15:05:20;;;;;;;6.20;2.00;;;4.00;85.40;;;;;;4086790;29;20142;-79
2023/11/25 15:07:22;;;;;;;10.63;2.20;;;4.10;85.40;;;;;;4086443;29;20453;-77
2023/11/25 15:09:24;;;;;;;8.90;2.50;;;4.00;85.40;;;;;;4086232;29;20107;-79
2023/11/25 15:11:25;;;;;;;8.48;2.10;;;4.00;85.40;;;;;;4086216;29;20052;-80
2023/11/25 15:13:28;;;;;;;7.13;1.90;;;4.00;85.40;;;;;;4086326;29;20418;-78
2023/11/25 15:15:31;;;;;;;6.25;2.45;;;4.00;85.60;;;;;;4086235;29;20051;-79
2023/11/25 15:17:33;;;;;;;7.40;2.60;;;4.00;86.10;;;;;;4086105;29;20112;-79
2023/11/25 15:19:39;;;;;;;8.27;2.40;;;4.00;86.20;;;;;;4086211;29;20485;-78
2023/11/25 15:21:40;;;;;;;11.25;2.50;;;4.00;86.20;;;;;;4086064;29;20060;-80
2023/11/25 15:23:44;;;;;;;7.72;2.03;;;4.00;86.30;;;;;;4086160;29;20058;-80
2023/11/25 15:25:45;;;;;;;5.47;1.88;;;4.00;86.00;;;;;;4085940;29;20052;-79
2023/11/25 15:27:48;;;;;;;7.93;2.78;;;4.00;85.80;;;;;;4085071;29;20044;-78
2023/11/25 15:30:05;;;;;;;9.88;2.42;;;4.00;86.50;;;;;;4085864;29;20051;-79
2023/11/25 15:32:07;;;;;;;7.25;2.08;;;3.90;85.90;;;;;;4085949;29;20434;-80
2023/11/25 15:34:08;;;;;;;8.85;2.00;;;4.00;86.10;;;;;;4085912;29;20043;-79
2023/11/25 15:36:12;;;;;;;6.82;1.90;;;3.90;85.90;;;;;;4085957;29;20055;-77
2023/11/25 15:38:13;;;;;;;5.40;1.98;;;3.90;86.60;;;;;;4085984;29;20083;-79
2023/11/25 15:40:17;;;;;;;6.55;2.10;;;3.90;86.10;;;;;;4085790;29;20102;-78
2023/11/25 15:42:19;;;;;;;6.78;1.98;;;3.90;86.20;;;;;;4085786;29;20103;-77
2023/11/25 15:44:21;;;;;;;5.90;1.85;;;3.90;86.20;;;;;;4085712;29;20454;-78
2023/11/25 15:46:24;;;;;;;7.30;2.20;;;3.90;86.50;;;;;;4085547;29;20048;-78
2023/11/25 15:48:27;;;;;;;6.07;2.05;;;3.90;86.40;;;;;;4085702;29;20521;-77
2023/11/25 15:50:29;;;;;;;7.07;2.50;;;3.90;86.70;;;;;;4085577;29;20052;-77
2023/11/25 15:52:31;;;;;;;5.90;1.95;;;3.90;86.70;;;;;;4085529;29;20056;-77
2023/11/25 15:54:33;;;;;;;7.20;2.38;;;3.90;86.60;;;;;;4085537;29;20051;-79
2023/11/25 15:56:35;;;;;;;9.80;2.60;;;3.90;86.40;;;;;;4084911;29;20052;-80
2023/11/25 15:58:37;;;;;;;7.18;2.10;;;3.90;86.70;;;;;;4084993;29;20054;-77
2023/11/25 16:00:40;;;;;;;11.25;4.85;;;3.90;86.50;;;;;;4085318;29;20378;-78
2023/11/25 16:02:44;;;;;;;8.50;3.13;;;3.90;86.70;;;;;;4086089;29;20055;-79
2023/11/25 16:04:48;;;;;;;8.57;2.55;;;3.80;86.80;;;;;;4086423;29;20078;-79
2023/11/25 16:06:49;;;;;;;6.10;2.22;;;3.90;87.20;;;;;;4086043;29;20103;-80
2023/11/25 16:08:51;;;;;;;9.73;2.55;;;3.90;87.10;;;;;;4085928;29;20095;-77
2023/11/25 16:10:53;;;;;;;7.35;2.38;;;3.90;87.10;;;;;;4085475;29;20047;-77
2023/11/25 16:12:56;;;;;;;6.50;2.67;;;3.80;87.10;;;;;;4085467;29;20400;-78
2023/11/25 16:14:59;;;;;;;5.65;2.50;;;3.80;87.40;;;;;;4084191;29;20489;-78
2023/11/25 16:16:59;;;;;;;9.20;2.70;;;3.80;87.60;;;;;;4094463;29;20538;-75
2023/11/25 16:19:03;;;;;;;6.82;2.42;;;3.70;87.80;;;;;;4101142;29;20094;-78
2023/11/25 16:21:05;;;;;;;8.63;2.67;;;3.80;88.10;;;;;;4095750;29;20043;-79
2023/11/25 16:23:08;;;;;;;6.70;2.25;;;3.70;88.40;;;;;;4101144;29;20055;-78
2023/11/25 16:25:10;;;;;;;6.78;2.45;;;3.70;88.50;;;;;;4100854;29;20047;-78
2023/11/25 16:27:12;;;;;;;7.47;2.47;;;3.70;88.50;;;;;;4092729;29;20050;-77
2023/11/25 16:29:14;;;;;;;9.68;3.15;;;3.70;88.50;;;;;;4100117;29;20051;-78
2023/11/25 16:31:15;;;;;;;7.43;2.50;;;3.80;88.50;;;;;;4096413;29;20039;-79
2023/11/25 16:33:17;;;;;;;8.25;2.88;;;3.70;88.60;;;;;;4100946;29;20477;-79
2023/11/25 16:35:21;;;;;;;8.45;3.03;;;3.70;88.60;;;;;;4100897;29;20106;-77
2023/11/25 16:37:22;;;;;;;10.20;2.92;;;3.80;88.80;;;;;;4099316;29;20047;-79
2023/11/25 16:39:24;;;;;;;9.43;2.90;;;3.70;88.80;;;;;;4091740;29;20059;-78
2023/11/25 16:41:26;;;;;;;6.78;2.70;;;3.70;88.90;;;;;;4083913;29;20399;-81
2023/11/25 16:43:29;;;;;;;8.25;2.88;;;3.70;89.00;;;;;;4083428;29;20399;-80
2023/11/25 16:45:32;;;;;;;9.60;2.92;;;3.70;90.00;;;;;;4082433;29;20533;-79
2023/11/25 16:47:33;;;;;;;7.47;2.72;;;3.70;89.30;;;;;;4097546;29;20143;-79